sensor_id;sensor_type;location;lat;lon;timestamp;P1;durP1;ratioP1;P2;durP2;ratioP2
63218;SDS011;49320;52.512;13.448;2023-08-24T00:01:57;3.10;;;2.00;;
63218;SDS011;49320;52.512;13.448;2023-08-24T00:04:23;3.30;;;2.33;;
63218;SDS011;49320;52.512;13.448;2023-08-24T00:06:50;2.92;;;2.28;;
63218;SDS011;49320;52.512;13.448;2023-08-24T00:09:18;3.22;;;2.00;;
63218;SDS011;49320;52.512;13.448;2023-08-24T00:11:45;3.40;;;2.30;;
63218;SDS011;49320;52.512;13.448;2023-08-24T00:14:12;2.63;;;2.13;;
63218;SDS011;49320;52.512;13.448;2023-08-24T00:16:38;3.10;;;2.25;;
63218;SDS011;49320;52.512;13.448;2023-08-24T00:19:06;3.67;;;2.60;;
63218;SDS011;49320;52.512;13.448;2023-08-24T00:21:34;3.58;;;2.88;;
63218;SDS011;49320;52.512;13.448;2023-08-24T00:24:00;3.50;;;2.25;;
63218;SDS011;49320;52.512;13.448;2023-08-24T00:26:27;2.65;;;2.00;;
63218;SDS011;49320;52.512;13.448;2023-08-24T00:28:55;2.20;;;1.90;;
63218;SDS011;49320;52.512;13.448;2023-08-24T00:31:22;3.08;;;2.10;;
63218;SDS011;49320;52.512;13.448;2023-08-24T00:33:48;3.30;;;1.90;;
63218;SDS011;49320;52.512;13.448;2023-08-24T00:36:16;3.45;;;2.33;;
63218;SDS011;49320;52.512;13.448;2023-08-24T00:38:47;4.28;;;2.22;;
63218;SDS011;49320;52.512;13.448;2023-08-24T00:41:17;3.20;;;2.17;;
63218;SDS011;49320;52.512;13.448;2023-08-24T00:43:44;2.92;;;2.03;;
63218;SDS011;49320;52.512;13.448;2023-08-24T00:46:10;3.45;;;2.00;;
63218;SDS011;49320;52.512;13.448;2023-08-24T00:48:37;2.00;;;1.70;;
63218;SDS011;49320;52.512;13.448;2023-08-24T00:51:04;2.08;;;1.80;;
63218;SDS011;49320;52.512;13.448;2023-08-24T00:53:31;3.13;;;1.70;;
63218;SDS011;49320;52.512;13.448;2023-08-24T00:55:59;2.95;;;2.17;;
63218;SDS011;49320;52.512;13.448;2023-08-24T00:58:26;2.97;;;2.00;;
63218;SDS011;49320;52.512;13.448;2023-08-24T01:00:54;3.22;;;2.38;;
63218;SDS011;49320;52.512;13.448;2023-08-24T01:03:23;2.40;;;1.90;;
63218;SDS011;49320;52.512;13.448;2023-08-24T01:05:51;3.70;;;2.10;;
63218;SDS011;49320;52.512;13.448;2023-08-24T01:08:18;2.28;;;2.08;;
63218;SDS011;49320;52.512;13.448;2023-08-24T01:10:48;3.85;;;2.00;;
63218;SDS011;49320;52.512;13.448;2023-08-24T01:16:43;4.60;;;2.15;;
63218;SDS011;49320;52.512;13.448;2023-08-24T01:19:46;4.05;;;3.38;;
63218;SDS011;49320;52.512;13.448;2023-08-24T01:25:16;3.63;;;2.50;;
63218;SDS011;49320;52.512;13.448;2023-08-24T01:27:50;2.63;;;1.85;;
63218;SDS011;49320;52.512;13.448;2023-08-24T01:30:18;2.45;;;1.90;;
63218;SDS011;49320;52.512;13.448;2023-08-24T01:32:46;2.95;;;2.08;;
63218;SDS011;49320;52.512;13.448;2023-08-24T01:35:13;3.88;;;2.25;;
63218;SDS011;49320;52.512;13.448;2023-08-24T01:37:40;3.45;;;2.22;;
63218;SDS011;49320;52.512;13.448;2023-08-24T01:40:22;4.25;;;2.75;;
63218;SDS011;49320;52.512;13.448;2023-08-24T01:43:02;3.35;;;2.40;;
63218;SDS011;49320;52.512;13.448;2023-08-24T01:45:32;3.78;;;2.65;;
63218;SDS011;49320;52.512;13.448;2023-08-24T01:48:00;4.50;;;2.92;;
63218;SDS011;49320;52.512;13.448;2023-08-24T01:50:30;4.47;;;2.85;;
63218;SDS011;49320;52.512;13.448;2023-08-24T01:52:59;5.40;;;3.20;;
63218;SDS011;49320;52.512;13.448;2023-08-24T01:55:27;4.82;;;3.83;;
63218;SDS011;49320;52.512;13.448;2023-08-24T01:57:55;5.45;;;3.60;;
63218;SDS011;49320;52.512;13.448;2023-08-24T02:00:22;4.15;;;3.17;;
63218;SDS011;49320;52.512;13.448;2023-08-24T02:02:49;22.88;;;5.35;;
63218;SDS011;49320;52.512;13.448;2023-08-24T02:05:16;4.43;;;3.40;;
63218;SDS011;49320;52.512;13.448;2023-08-24T02:07:43;4.82;;;3.45;;
63218;SDS011;49320;52.512;13.448;2023-08-24T02:10:10;5.35;;;3.53;;
63218;SDS011;49320;52.512;13.448;2023-08-24T02:12:37;5.60;;;3.38;;
63218;SDS011;49320;52.512;13.448;2023-08-24T02:15:04;5.88;;;3.78;;
63218;SDS011;49320;52.512;13.448;2023-08-24T02:17:31;5.55;;;3.42;;
63218;SDS011;49320;52.512;13.448;2023-08-24T02:20:00;5.00;;;3.97;;
63218;SDS011;49320;52.512;13.448;2023-08-24T02:22:26;4.80;;;3.42;;
63218;SDS011;49320;52.512;13.448;2023-08-24T02:24:56;4.95;;;3.97;;
63218;SDS011;49320;52.512;13.448;2023-08-24T02:27:23;4.60;;;3.45;;
63218;SDS011;49320;52.512;13.448;2023-08-24T02:29:50;6.20;;;3.60;;
63218;SDS011;49320;52.512;13.448;2023-08-24T02:32:16;5.65;;;3.78;;
63218;SDS011;49320;52.512;13.448;2023-08-24T02:34:43;4.80;;;3.63;;
63218;SDS011;49320;52.512;13.448;2023-08-24T02:37:10;4.30;;;3.50;;
63218;SDS011;49320;52.512;13.448;2023-08-24T02:39:38;4.47;;;3.60;;
63218;SDS011;49320;52.512;13.448;2023-08-24T02:42:05;6.50;;;4.50;;
63218;SDS011;49320;52.512;13.448;2023-08-24T02:44:31;5.63;;;4.22;;
63218;SDS011;49320;52.512;13.448;2023-08-24T02:46:58;5.18;;;3.60;;
63218;SDS011;49320;52.512;13.448;2023-08-24T02:49:25;4.10;;;3.70;;
63218;SDS011;49320;52.512;13.448;2023-08-24T02:51:52;4.47;;;3.63;;
63218;SDS011;49320;52.512;13.448;2023-08-24T02:54:19;5.38;;;3.90;;
63218;SDS011;49320;52.512;13.448;2023-08-24T02:56:46;7.10;;;3.85;;
63218;SDS011;49320;52.512;13.448;2023-08-24T02:59:13;4.97;;;3.85;;
63218;SDS011;49320;52.512;13.448;2023-08-24T03:01:39;4.68;;;3.60;;
63218;SDS011;49320;52.512;13.448;2023-08-24T03:04:07;5.20;;;3.45;;
63218;SDS011;49320;52.512;13.448;2023-08-24T03:06:33;3.80;;;3.40;;
63218;SDS011;49320;52.512;13.448;2023-08-24T03:09:00;4.20;;;3.10;;
63218;SDS011;49320;52.512;13.448;2023-08-24T03:11:30;4.63;;;3.55;;
63218;SDS011;49320;52.512;13.448;2023-08-24T03:13:57;3.78;;;3.17;;
63218;SDS011;49320;52.512;13.448;2023-08-24T03:16:24;4.88;;;3.75;;
63218;SDS011;49320;52.512;13.448;2023-08-24T03:18:51;4.60;;;3.90;;
63218;SDS011;49320;52.512;13.448;2023-08-24T03:21:18;10.68;;;3.72;;
63218;SDS011;49320;52.512;13.448;2023-08-24T03:23:44;6.10;;;3.42;;
63218;SDS011;49320;52.512;13.448;2023-08-24T03:26:11;4.82;;;3.60;;
63218;SDS011;49320;52.512;13.448;2023-08-24T03:28:38;4.40;;;3.75;;
63218;SDS011;49320;52.512;13.448;2023-08-24T03:31:06;3.90;;;3.00;;
63218;SDS011;49320;52.512;13.448;2023-08-24T03:33:33;3.45;;;2.70;;
63218;SDS011;49320;52.512;13.448;2023-08-24T03:36:01;4.18;;;3.40;;
63218;SDS011;49320;52.512;13.448;2023-08-24T03:38:29;3.58;;;3.13;;
63218;SDS011;49320;52.512;13.448;2023-08-24T03:41:00;5.18;;;3.47;;
63218;SDS011;49320;52.512;13.448;2023-08-24T03:43:31;4.47;;;3.13;;
63218;SDS011;49320;52.512;13.448;2023-08-24T03:46:00;3.95;;;3.05;;
63218;SDS011;49320;52.512;13.448;2023-08-24T03:48:28;4.60;;;3.33;;
63218;SDS011;49320;52.512;13.448;2023-08-24T03:50:57;3.63;;;3.10;;
63218;SDS011;49320;52.512;13.448;2023-08-24T03:53:25;5.05;;;3.28;;
63218;SDS011;49320;52.512;13.448;2023-08-24T03:55:52;4.00;;;3.22;;
63218;SDS011;49320;52.512;13.448;2023-08-24T03:58:20;4.20;;;2.90;;
63218;SDS011;49320;52.512;13.448;2023-08-24T04:00:47;3.97;;;2.92;;
63218;SDS011;49320;52.512;13.448;2023-08-24T04:03:14;4.78;;;3.60;;
63218;SDS011;49320;52.512;13.448;2023-08-24T04:05:41;4.82;;;4.13;;
63218;SDS011;49320;52.512;13.448;2023-08-24T04:08:07;4.82;;;3.30;;
63218;SDS011;49320;52.512;13.448;2023-08-24T04:10:34;3.50;;;3.20;;
63218;SDS011;49320;52.512;13.448;2023-08-24T04:13:01;3.50;;;2.80;;
63218;SDS011;49320;52.512;13.448;2023-08-24T04:15:28;4.00;;;3.25;;
63218;SDS011;49320;52.512;13.448;2023-08-24T04:17:55;3.05;;;2.60;;
63218;SDS011;49320;52.512;13.448;2023-08-24T04:20:23;3.97;;;2.63;;
63218;SDS011;49320;52.512;13.448;2023-08-24T04:22:50;2.78;;;2.50;;
63218;SDS011;49320;52.512;13.448;2023-08-24T04:25:16;3.75;;;2.50;;
63218;SDS011;49320;52.512;13.448;2023-08-24T04:27:43;3.38;;;2.30;;
63218;SDS011;49320;52.512;13.448;2023-08-24T04:30:10;2.92;;;2.33;;
63218;SDS011;49320;52.512;13.448;2023-08-24T04:32:38;3.92;;;2.47;;
63218;SDS011;49320;52.512;13.448;2023-08-24T04:35:06;5.93;;;2.78;;
63218;SDS011;49320;52.512;13.448;2023-08-24T04:37:34;4.22;;;2.92;;
63218;SDS011;49320;52.512;13.448;2023-08-24T04:40:01;5.25;;;3.05;;
63218;SDS011;49320;52.512;13.448;2023-08-24T04:42:27;4.07;;;3.28;;
63218;SDS011;49320;52.512;13.448;2023-08-24T04:44:54;3.47;;;2.58;;
63218;SDS011;49320;52.512;13.448;2023-08-24T04:47:24;3.25;;;2.60;;
63218;SDS011;49320;52.512;13.448;2023-08-24T04:49:51;3.83;;;2.53;;
63218;SDS011;49320;52.512;13.448;2023-08-24T04:52:18;3.70;;;2.60;;
63218;SDS011;49320;52.512;13.448;2023-08-24T04:54:45;3.42;;;2.35;;
63218;SDS011;49320;52.512;13.448;2023-08-24T04:57:12;3.45;;;2.38;;
63218;SDS011;49320;52.512;13.448;2023-08-24T04:59:39;2.60;;;2.33;;
63218;SDS011;49320;52.512;13.448;2023-08-24T05:02:06;4.05;;;2.60;;
63218;SDS011;49320;52.512;13.448;2023-08-24T05:04:33;3.63;;;2.47;;
63218;SDS011;49320;52.512;13.448;2023-08-24T05:07:00;4.82;;;2.45;;
63218;SDS011;49320;52.512;13.448;2023-08-24T05:09:27;2.42;;;2.22;;
63218;SDS011;49320;52.512;13.448;2023-08-24T05:11:54;3.58;;;2.10;;
63218;SDS011;49320;52.512;13.448;2023-08-24T05:14:20;3.65;;;2.78;;
63218;SDS011;49320;52.512;13.448;2023-08-24T05:16:47;4.15;;;2.40;;
63218;SDS011;49320;52.512;13.448;2023-08-24T05:19:14;2.25;;;2.05;;
63218;SDS011;49320;52.512;13.448;2023-08-24T05:21:41;2.70;;;2.47;;
63218;SDS011;49320;52.512;13.448;2023-08-24T05:24:08;2.85;;;2.45;;
63218;SDS011;49320;52.512;13.448;2023-08-24T05:26:35;2.92;;;2.58;;
63218;SDS011;49320;52.512;13.448;2023-08-24T05:29:01;4.90;;;2.30;;
63218;SDS011;49320;52.512;13.448;2023-08-24T05:31:28;3.45;;;2.15;;
63218;SDS011;49320;52.512;13.448;2023-08-24T05:33:55;2.70;;;2.10;;
63218;SDS011;49320;52.512;13.448;2023-08-24T05:36:22;3.83;;;2.45;;
63218;SDS011;49320;52.512;13.448;2023-08-24T05:38:49;4.32;;;2.20;;
63218;SDS011;49320;52.512;13.448;2023-08-24T05:41:31;3.50;;;2.05;;
63218;SDS011;49320;52.512;13.448;2023-08-24T05:43:58;2.95;;;2.30;;
63218;SDS011;49320;52.512;13.448;2023-08-24T05:46:25;3.22;;;2.50;;
63218;SDS011;49320;52.512;13.448;2023-08-24T05:48:52;2.75;;;2.30;;
63218;SDS011;49320;52.512;13.448;2023-08-24T05:51:19;3.63;;;2.28;;
63218;SDS011;49320;52.512;13.448;2023-08-24T05:53:46;3.65;;;2.20;;
63218;SDS011;49320;52.512;13.448;2023-08-24T05:56:13;5.15;;;2.40;;
63218;SDS011;49320;52.512;13.448;2023-08-24T05:58:40;3.00;;;2.60;;
63218;SDS011;49320;52.512;13.448;2023-08-24T06:01:07;3.00;;;2.30;;
63218;SDS011;49320;52.512;13.448;2023-08-24T06:03:34;3.75;;;2.88;;
63218;SDS011;49320;52.512;13.448;2023-08-24T06:06:01;3.58;;;2.53;;
63218;SDS011;49320;52.512;13.448;2023-08-24T06:08:31;4.47;;;2.35;;
63218;SDS011;49320;52.512;13.448;2023-08-24T06:10:58;3.58;;;2.50;;
63218;SDS011;49320;52.512;13.448;2023-08-24T06:13:25;3.40;;;2.47;;
63218;SDS011;49320;52.512;13.448;2023-08-24T06:15:53;4.82;;;2.40;;
63218;SDS011;49320;52.512;13.448;2023-08-24T06:18:20;4.60;;;2.53;;
63218;SDS011;49320;52.512;13.448;2023-08-24T06:20:48;3.35;;;2.30;;
63218;SDS011;49320;52.512;13.448;2023-08-24T06:23:17;3.00;;;2.20;;
63218;SDS011;49320;52.512;13.448;2023-08-24T06:25:45;3.30;;;1.70;;
63218;SDS011;49320;52.512;13.448;2023-08-24T06:28:12;3.30;;;1.90;;
63218;SDS011;49320;52.512;13.448;2023-08-24T06:30:40;3.88;;;2.00;;
63218;SDS011;49320;52.512;13.448;2023-08-24T06:33:09;2.97;;;1.65;;
63218;SDS011;49320;52.512;13.448;2023-08-24T06:35:37;2.70;;;1.58;;
63218;SDS011;49320;52.512;13.448;2023-08-24T06:38:04;2.83;;;1.65;;
63218;SDS011;49320;52.512;13.448;2023-08-24T06:40:31;3.17;;;2.00;;
63218;SDS011;49320;52.512;13.448;2023-08-24T06:42:58;3.53;;;1.90;;
63218;SDS011;49320;52.512;13.448;2023-08-24T06:45:25;2.17;;;1.75;;
63218;SDS011;49320;52.512;13.448;2023-08-24T06:47:52;2.72;;;2.20;;
63218;SDS011;49320;52.512;13.448;2023-08-24T06:50:19;2.35;;;1.60;;
63218;SDS011;49320;52.512;13.448;2023-08-24T06:52:46;1.85;;;1.63;;
63218;SDS011;49320;52.512;13.448;2023-08-24T06:55:14;3.13;;;1.90;;
63218;SDS011;49320;52.512;13.448;2023-08-24T06:57:40;2.38;;;1.70;;
63218;SDS011;49320;52.512;13.448;2023-08-24T07:00:08;3.42;;;1.80;;
63218;SDS011;49320;52.512;13.448;2023-08-24T07:02:36;3.15;;;2.15;;
63218;SDS011;49320;52.512;13.448;2023-08-24T07:05:03;3.17;;;1.83;;
63218;SDS011;49320;52.512;13.448;2023-08-24T07:07:35;4.55;;;1.73;;
63218;SDS011;49320;52.512;13.448;2023-08-24T07:10:02;2.72;;;2.05;;
63218;SDS011;49320;52.512;13.448;2023-08-24T07:12:30;3.00;;;1.73;;
63218;SDS011;49320;52.512;13.448;2023-08-24T07:14:57;2.67;;;1.92;;
63218;SDS011;49320;52.512;13.448;2023-08-24T07:17:24;3.55;;;2.10;;
63218;SDS011;49320;52.512;13.448;2023-08-24T07:19:51;4.72;;;3.47;;
63218;SDS011;49320;52.512;13.448;2023-08-24T07:22:18;4.18;;;2.95;;
63218;SDS011;49320;52.512;13.448;2023-08-24T07:24:45;2.83;;;2.15;;
63218;SDS011;49320;52.512;13.448;2023-08-24T07:27:12;2.53;;;1.90;;
63218;SDS011;49320;52.512;13.448;2023-08-24T07:29:39;2.33;;;1.75;;
63218;SDS011;49320;52.512;13.448;2023-08-24T07:32:06;2.38;;;1.63;;
63218;SDS011;49320;52.512;13.448;2023-08-24T07:34:33;2.50;;;1.80;;
63218;SDS011;49320;52.512;13.448;2023-08-24T07:37:00;3.30;;;1.80;;
63218;SDS011;49320;52.512;13.448;2023-08-24T07:39:27;1.85;;;1.60;;
63218;SDS011;49320;52.512;13.448;2023-08-24T07:41:54;4.20;;;1.83;;
63218;SDS011;49320;52.512;13.448;2023-08-24T07:44:21;2.67;;;1.75;;
63218;SDS011;49320;52.512;13.448;2023-08-24T07:46:47;2.35;;;1.60;;
63218;SDS011;49320;52.512;13.448;2023-08-24T07:49:15;3.88;;;2.00;;
63218;SDS011;49320;52.512;13.448;2023-08-24T07:51:42;2.58;;;1.60;;
63218;SDS011;49320;52.512;13.448;2023-08-24T07:54:10;4.18;;;1.88;;
63218;SDS011;49320;52.512;13.448;2023-08-24T07:56:37;2.72;;;1.83;;
63218;SDS011;49320;52.512;13.448;2023-08-24T07:59:03;4.53;;;1.77;;
63218;SDS011;49320;52.512;13.448;2023-08-24T08:01:30;2.58;;;1.85;;
63218;SDS011;49320;52.512;13.448;2023-08-24T08:03:57;1.98;;;1.40;;
63218;SDS011;49320;52.512;13.448;2023-08-24T08:06:25;1.77;;;1.50;;
63218;SDS011;49320;52.512;13.448;2023-08-24T08:08:53;2.03;;;1.67;;
63218;SDS011;49320;52.512;13.448;2023-08-24T08:11:20;2.00;;;1.60;;
63218;SDS011;49320;52.512;13.448;2023-08-24T08:13:47;2.38;;;1.77;;
63218;SDS011;49320;52.512;13.448;2023-08-24T08:16:14;2.67;;;1.70;;
63218;SDS011;49320;52.512;13.448;2023-08-24T08:18:41;2.83;;;1.80;;
63218;SDS011;49320;52.512;13.448;2023-08-24T08:21:09;4.32;;;1.90;;
63218;SDS011;49320;52.512;13.448;2023-08-24T08:23:47;3.78;;;1.80;;
63218;SDS011;49320;52.512;13.448;2023-08-24T08:26:14;4.38;;;1.77;;
63218;SDS011;49320;52.512;13.448;2023-08-24T08:28:42;1.95;;;1.42;;
63218;SDS011;49320;52.512;13.448;2023-08-24T08:31:09;2.03;;;1.63;;
63218;SDS011;49320;52.512;13.448;2023-08-24T08:33:36;1.92;;;1.65;;
63218;SDS011;49320;52.512;13.448;2023-08-24T08:36:03;4.70;;;2.50;;
63218;SDS011;49320;52.512;13.448;2023-08-24T08:38:30;3.50;;;1.65;;
63218;SDS011;49320;52.512;13.448;2023-08-24T08:41:01;1.80;;;1.38;;
63218;SDS011;49320;52.512;13.448;2023-08-24T08:43:30;2.72;;;1.70;;
63218;SDS011;49320;52.512;13.448;2023-08-24T08:45:57;2.45;;;1.60;;
63218;SDS011;49320;52.512;13.448;2023-08-24T08:48:26;2.03;;;1.77;;
63218;SDS011;49320;52.512;13.448;2023-08-24T08:50:57;3.40;;;2.00;;
63218;SDS011;49320;52.512;13.448;2023-08-24T08:53:25;3.15;;;1.70;;
63218;SDS011;49320;52.512;13.448;2023-08-24T08:55:53;2.30;;;1.73;;
63218;SDS011;49320;52.512;13.448;2023-08-24T08:58:21;7.47;;;2.13;;
63218;SDS011;49320;52.512;13.448;2023-08-24T09:00:48;4.18;;;1.80;;
63218;SDS011;49320;52.512;13.448;2023-08-24T09:03:18;1.92;;;1.50;;
63218;SDS011;49320;52.512;13.448;2023-08-24T09:05:46;2.28;;;1.80;;
63218;SDS011;49320;52.512;13.448;2023-08-24T09:08:17;3.70;;;1.77;;
63218;SDS011;49320;52.512;13.448;2023-08-24T09:10:44;2.03;;;1.80;;
63218;SDS011;49320;52.512;13.448;2023-08-24T09:13:11;3.28;;;1.75;;
63218;SDS011;49320;52.512;13.448;2023-08-24T09:15:38;6.78;;;1.90;;
63218;SDS011;49320;52.512;13.448;2023-08-24T09:18:06;3.42;;;1.95;;
63218;SDS011;49320;52.512;13.448;2023-08-24T09:20:33;2.60;;;1.70;;
63218;SDS011;49320;52.512;13.448;2023-08-24T09:23:00;4.72;;;1.60;;
63218;SDS011;49320;52.512;13.448;2023-08-24T09:25:28;4.22;;;1.80;;
63218;SDS011;49320;52.512;13.448;2023-08-24T09:27:59;3.20;;;1.85;;
63218;SDS011;49320;52.512;13.448;2023-08-24T09:30:37;2.83;;;1.73;;
63218;SDS011;49320;52.512;13.448;2023-08-24T09:33:04;2.60;;;1.40;;
63218;SDS011;49320;52.512;13.448;2023-08-24T09:35:37;2.17;;;1.60;;
63218;SDS011;49320;52.512;13.448;2023-08-24T09:38:16;3.10;;;1.50;;
63218;SDS011;49320;52.512;13.448;2023-08-24T09:40:45;2.75;;;1.52;;
63218;SDS011;49320;52.512;13.448;2023-08-24T09:43:17;2.13;;;1.77;;
63218;SDS011;49320;52.512;13.448;2023-08-24T09:45:54;2.63;;;1.70;;
63218;SDS011;49320;52.512;13.448;2023-08-24T09:48:22;2.40;;;1.60;;
63218;SDS011;49320;52.512;13.448;2023-08-24T09:50:54;2.40;;;1.60;;
63218;SDS011;49320;52.512;13.448;2023-08-24T09:53:23;4.63;;;1.52;;
63218;SDS011;49320;52.512;13.448;2023-08-24T09:56:00;6.55;;;1.70;;
63218;SDS011;49320;52.512;13.448;2023-08-24T09:58:29;1.98;;;1.50;;
63218;SDS011;49320;52.512;13.448;2023-08-24T10:00:57;1.48;;;1.38;;
63218;SDS011;49320;52.512;13.448;2023-08-24T10:03:25;2.00;;;1.35;;
63218;SDS011;49320;52.512;13.448;2023-08-24T10:05:54;3.10;;;1.10;;
63218;SDS011;49320;52.512;13.448;2023-08-24T10:08:35;2.72;;;1.50;;
63218;SDS011;49320;52.512;13.448;2023-08-24T10:11:06;1.60;;;1.25;;
63218;SDS011;49320;52.512;13.448;2023-08-24T10:13:41;1.60;;;1.23;;
63218;SDS011;49320;52.512;13.448;2023-08-24T10:16:19;1.88;;;1.50;;
63218;SDS011;49320;52.512;13.448;2023-08-24T10:18:47;3.33;;;1.70;;
63218;SDS011;49320;52.512;13.448;2023-08-24T10:21:18;3.28;;;2.78;;
63218;SDS011;49320;52.512;13.448;2023-08-24T10:23:45;2.67;;;1.88;;
63218;SDS011;49320;52.512;13.448;2023-08-24T10:26:12;2.70;;;1.75;;
63218;SDS011;49320;52.512;13.448;2023-08-24T10:28:41;2.50;;;1.60;;
63218;SDS011;49320;52.512;13.448;2023-08-24T10:31:09;2.85;;;1.50;;
63218;SDS011;49320;52.512;13.448;2023-08-24T10:33:36;2.22;;;1.33;;
63218;SDS011;49320;52.512;13.448;2023-08-24T10:36:05;2.50;;;1.67;;
63218;SDS011;49320;52.512;13.448;2023-08-24T10:38:34;1.80;;;1.42;;
63218;SDS011;49320;52.512;13.448;2023-08-24T10:41:07;3.85;;;1.58;;
63218;SDS011;49320;52.512;13.448;2023-08-24T10:43:38;3.78;;;1.52;;
63218;SDS011;49320;52.512;13.448;2023-08-24T10:46:12;2.38;;;1.73;;
63218;SDS011;49320;52.512;13.448;2023-08-24T10:51:22;2.85;;;1.35;;
63218;SDS011;49320;52.512;13.448;2023-08-24T10:56:30;1.45;;;1.23;;
63218;SDS011;49320;52.512;13.448;2023-08-24T11:04:18;2.67;;;1.60;;
63218;SDS011;49320;52.512;13.448;2023-08-24T11:06:52;3.72;;;1.90;;
63218;SDS011;49320;52.512;13.448;2023-08-24T11:09:25;3.03;;;1.67;;
63218;SDS011;49320;52.512;13.448;2023-08-24T11:12:00;2.40;;;1.42;;
63218;SDS011;49320;52.512;13.448;2023-08-24T11:14:30;2.58;;;1.40;;
63218;SDS011;49320;52.512;13.448;2023-08-24T11:17:01;2.13;;;1.42;;
63218;SDS011;49320;52.512;13.448;2023-08-24T11:19:54;2.00;;;1.50;;
63218;SDS011;49320;52.512;13.448;2023-08-24T11:22:21;1.98;;;1.58;;
63218;SDS011;49320;52.512;13.448;2023-08-24T11:24:48;2.50;;;1.85;;
63218;SDS011;49320;52.512;13.448;2023-08-24T11:27:15;2.63;;;1.98;;
63218;SDS011;49320;52.512;13.448;2023-08-24T11:29:42;3.15;;;1.85;;
63218;SDS011;49320;52.512;13.448;2023-08-24T11:32:09;2.90;;;1.90;;
63218;SDS011;49320;52.512;13.448;2023-08-24T11:34:36;6.70;;;2.10;;
63218;SDS011;49320;52.512;13.448;2023-08-24T11:37:03;2.35;;;1.80;;
63218;SDS011;49320;52.512;13.448;2023-08-24T11:39:30;1.90;;;1.60;;
63218;SDS011;49320;52.512;13.448;2023-08-24T11:42:02;6.63;;;2.00;;
63218;SDS011;49320;52.512;13.448;2023-08-24T11:44:44;1.75;;;1.63;;
63218;SDS011;49320;52.512;13.448;2023-08-24T11:47:13;4.05;;;1.95;;
63218;SDS011;49320;52.512;13.448;2023-08-24T11:49:40;3.22;;;2.20;;
63218;SDS011;49320;52.512;13.448;2023-08-24T11:52:08;3.65;;;1.92;;
63218;SDS011;49320;52.512;13.448;2023-08-24T11:54:35;2.20;;;1.85;;
63218;SDS011;49320;52.512;13.448;2023-08-24T11:57:06;2.60;;;1.88;;
63218;SDS011;49320;52.512;13.448;2023-08-24T11:59:36;2.25;;;1.70;;
63218;SDS011;49320;52.512;13.448;2023-08-24T12:02:05;4.70;;;1.90;;
63218;SDS011;49320;52.512;13.448;2023-08-24T12:04:39;2.00;;;1.80;;
63218;SDS011;49320;52.512;13.448;2023-08-24T12:07:10;2.33;;;1.90;;
63218;SDS011;49320;52.512;13.448;2023-08-24T12:09:41;2.95;;;1.80;;
63218;SDS011;49320;52.512;13.448;2023-08-24T12:12:15;2.03;;;1.77;;
63218;SDS011;49320;52.512;13.448;2023-08-24T12:14:45;2.50;;;1.75;;
63218;SDS011;49320;52.512;13.448;2023-08-24T12:17:13;4.97;;;2.10;;
63218;SDS011;49320;52.512;13.448;2023-08-24T12:19:42;3.50;;;1.90;;
63218;SDS011;49320;52.512;13.448;2023-08-24T12:22:19;2.50;;;1.88;;
63218;SDS011;49320;52.512;13.448;2023-08-24T12:24:46;2.10;;;1.58;;
63218;SDS011;49320;52.512;13.448;2023-08-24T12:27:19;2.50;;;2.17;;
63218;SDS011;49320;52.512;13.448;2023-08-24T12:29:52;2.55;;;1.98;;
63218;SDS011;49320;52.512;13.448;2023-08-24T12:32:20;2.03;;;1.80;;
63218;SDS011;49320;52.512;13.448;2023-08-24T12:34:51;3.55;;;2.28;;
63218;SDS011;49320;52.512;13.448;2023-08-24T12:37:18;4.40;;;3.30;;
63218;SDS011;49320;52.512;13.448;2023-08-24T12:39:45;3.72;;;3.15;;
63218;SDS011;49320;52.512;13.448;2023-08-24T12:42:12;4.47;;;3.60;;
63218;SDS011;49320;52.512;13.448;2023-08-24T12:44:39;3.35;;;2.63;;
63218;SDS011;49320;52.512;13.448;2023-08-24T12:47:05;3.15;;;2.60;;
63218;SDS011;49320;52.512;13.448;2023-08-24T12:49:32;2.70;;;2.13;;
63218;SDS011;49320;52.512;13.448;2023-08-24T12:51:59;2.03;;;1.73;;
63218;SDS011;49320;52.512;13.448;2023-08-24T12:54:26;2.83;;;2.05;;
63218;SDS011;49320;52.512;13.448;2023-08-24T12:56:53;2.17;;;1.80;;
63218;SDS011;49320;52.512;13.448;2023-08-24T12:59:19;3.28;;;1.90;;
63218;SDS011;49320;52.512;13.448;2023-08-24T13:01:46;2.60;;;1.90;;
63218;SDS011;49320;52.512;13.448;2023-08-24T13:04:13;4.47;;;3.78;;
63218;SDS011;49320;52.512;13.448;2023-08-24T13:06:40;3.70;;;2.70;;
63218;SDS011;49320;52.512;13.448;2023-08-24T13:09:07;3.65;;;2.28;;
63218;SDS011;49320;52.512;13.448;2023-08-24T13:11:34;3.72;;;2.20;;
63218;SDS011;49320;52.512;13.448;2023-08-24T13:14:01;3.15;;;1.80;;
63218;SDS011;49320;52.512;13.448;2023-08-24T13:16:29;2.25;;;1.77;;
63218;SDS011;49320;52.512;13.448;2023-08-24T13:18:56;2.53;;;1.77;;
63218;SDS011;49320;52.512;13.448;2023-08-24T13:21:24;2.15;;;1.90;;
63218;SDS011;49320;52.512;13.448;2023-08-24T13:23:51;2.17;;;1.95;;
63218;SDS011;49320;52.512;13.448;2023-08-24T13:26:18;2.00;;;1.80;;
63218;SDS011;49320;52.512;13.448;2023-08-24T13:28:51;2.45;;;1.90;;
63218;SDS011;49320;52.512;13.448;2023-08-24T13:31:18;2.88;;;1.70;;
63218;SDS011;49320;52.512;13.448;2023-08-24T13:33:45;3.38;;;1.90;;
63218;SDS011;49320;52.512;13.448;2023-08-24T13:36:12;3.17;;;1.60;;
63218;SDS011;49320;52.512;13.448;2023-08-24T13:38:39;4.72;;;2.08;;
63218;SDS011;49320;52.512;13.448;2023-08-24T13:41:06;2.33;;;1.77;;
63218;SDS011;49320;52.512;13.448;2023-08-24T13:43:33;6.03;;;2.35;;
63218;SDS011;49320;52.512;13.448;2023-08-24T13:46:00;2.78;;;1.98;;
63218;SDS011;49320;52.512;13.448;2023-08-24T13:48:30;2.38;;;1.60;;
63218;SDS011;49320;52.512;13.448;2023-08-24T13:51:00;3.13;;;2.60;;
63218;SDS011;49320;52.512;13.448;2023-08-24T13:53:27;4.35;;;2.42;;
63218;SDS011;49320;52.512;13.448;2023-08-24T13:55:54;2.53;;;2.05;;
63218;SDS011;49320;52.512;13.448;2023-08-24T13:58:20;3.50;;;2.22;;
63218;SDS011;49320;52.512;13.448;2023-08-24T14:00:47;2.42;;;1.70;;
63218;SDS011;49320;52.512;13.448;2023-08-24T14:03:21;3.80;;;1.90;;
63218;SDS011;49320;52.512;13.448;2023-08-24T14:05:48;2.35;;;1.83;;
63218;SDS011;49320;52.512;13.448;2023-08-24T14:08:17;3.55;;;2.08;;
63218;SDS011;49320;52.512;13.448;2023-08-24T14:10:44;2.42;;;2.15;;
63218;SDS011;49320;52.512;13.448;2023-08-24T14:13:13;3.80;;;2.20;;
63218;SDS011;49320;52.512;13.448;2023-08-24T14:15:41;2.50;;;2.00;;
63218;SDS011;49320;52.512;13.448;2023-08-24T14:18:11;3.25;;;2.05;;
63218;SDS011;49320;52.512;13.448;2023-08-24T14:20:39;3.10;;;2.40;;
63218;SDS011;49320;52.512;13.448;2023-08-24T14:23:05;2.58;;;1.95;;
63218;SDS011;49320;52.512;13.448;2023-08-24T14:25:33;4.38;;;2.20;;
63218;SDS011;49320;52.512;13.448;2023-08-24T14:27:59;2.55;;;1.85;;
63218;SDS011;49320;52.512;13.448;2023-08-24T14:30:32;2.50;;;2.00;;
63218;SDS011;49320;52.512;13.448;2023-08-24T14:32:59;4.63;;;2.22;;
63218;SDS011;49320;52.512;13.448;2023-08-24T14:35:26;2.85;;;2.10;;
63218;SDS011;49320;52.512;13.448;2023-08-24T14:37:53;2.85;;;1.90;;
63218;SDS011;49320;52.512;13.448;2023-08-24T14:40:21;2.58;;;1.70;;
63218;SDS011;49320;52.512;13.448;2023-08-24T14:42:47;3.20;;;2.00;;
63218;SDS011;49320;52.512;13.448;2023-08-24T14:45:15;2.50;;;1.95;;
63218;SDS011;49320;52.512;13.448;2023-08-24T14:47:44;6.15;;;2.30;;
63218;SDS011;49320;52.512;13.448;2023-08-24T14:50:12;5.53;;;2.05;;
63218;SDS011;49320;52.512;13.448;2023-08-24T14:52:40;1.67;;;1.58;;
63218;SDS011;49320;52.512;13.448;2023-08-24T14:55:07;3.00;;;2.10;;
63218;SDS011;49320;52.512;13.448;2023-08-24T14:57:35;3.60;;;1.80;;